ADDS METAR Data INFO
IDs: Format: Raw Decoded Include TAF

Data at: 2036 UTC 16 Dec 2017

KMTH 161953Z AUTO 06012KT 10SM CLR 24/18 A3013 RMK AO2 SLP201 T02440178
KMTH 161853Z AUTO 05011KT 10SM CLR 25/17 A3013 RMK AO2 SLP204 T02500172
KMTH 161753Z AUTO 05009KT 10SM CLR 24/17 A3015 RMK AO2 SLP209 T02440167 10244 20183 58018
KMTH 161653Z AUTO 05011KT 10SM CLR 23/17 A3018 RMK AO2 SLP218 T02280167
KMTH 161553Z AUTO 05011KT 10SM CLR 22/16 A3020 RMK AO2 SLP226 T02220161
KMTH 161453Z AUTO 04010KT 10SM CLR 22/16 A3020 RMK AO2 SLP227 T02170161 51018
KMTH 161353Z AUTO 03009KT 10SM CLR 21/16 A3020 RMK AO2 SLP226 T02060161
KMTH 161253Z AUTO 04007KT 10SM CLR 19/16 A3017 RMK AO2 SLP217 T01940161
KMTH 161153Z AUTO 06006KT 10SM CLR 19/15 A3015 RMK AO2 SLP209 T01890150 10200 20183 53003
KMTH 161053Z AUTO 05005KT 10SM CLR 19/16 A3014 RMK AO2 SLP206 T01890156
KMTH 160953Z AUTO 04007KT 10SM BKN065 19/16 A3014 RMK AO2 SLP207 T01940156
KMTH 160853Z AUTO 03005KT 10SM CLR 19/16 A3014 RMK AO2 SLP206 T01940156 56006
KMTH 160753Z AUTO 02007KT 10SM CLR 19/15 A3015 RMK AO2 SLP208 T01940150
KMTH 160653Z AUTO 02006KT 10SM CLR 19/15 A3016 RMK AO2 SLP211 T01940150
KMTH 160553Z AUTO 02005KT 10SM CLR 19/14 A3016 RMK AO2 SLP213 T01940144 10206 20194 58000
KMTH 160453Z AUTO 03006KT 10SM CLR 20/13 A3016 RMK AO2 SLP212 T02000133 402390128
KMTH 160353Z AUTO 02005KT 10SM CLR 20/13 A3017 RMK AO2 SLP214 T02000128
KMTH 160253Z AUTO 02004KT 10SM BKN060 19/13 A3016 RMK AO2 SLP213 T01940128 51017
KMTH 160153Z AUTO 34004KT 10SM FEW080 19/14 A3015 RMK AO2 SLP210 T01940144
KMTH 160053Z AUTO 01003KT 10SM OVC080 19/13 A3014 RMK AO2 SLP204 T01940133
KMTH 152353Z AUTO 02003KT 10SM OVC075 19/13 A3011 RMK AO2 SLP196 T01940128 10239 20194 51014
KMTH 152253Z AUTO 34004KT 10SM BKN060 20/11 A3010 RMK AO2 SLP193 T02000106
KMTH 152153Z AUTO 33004KT 10SM CLR 21/12 A3009 RMK AO2 SLP187 T02060122
KMTH 152053Z AUTO 34004KT 10SM CLR 22/09 A3007 RMK AO2 SLP183 T02220094 55006
KMTH 151953Z AUTO 36004KT 10SM CLR 23/10 A3007 RMK AO2 SLP182 T02330100
KMTH 151853Z AUTO 36003KT 10SM CLR 23/10 A3007 RMK AO2 SLP183 T02280100
KMTH 151753Z AUTO 01003KT 10SM CLR 23/10 A3009 RMK AO2 SLP188 T02330100 10233 20133 58013
KMTH 151653Z AUTO 03004KT 10SM CLR 22/11 A3011 RMK AO2 SLP197 T02220111
KMTH 151553Z AUTO 05003KT 10SM CLR 22/12 A3013 RMK AO2 SLP201 T02170122
KMTH 151453Z AUTO 02003KT 10SM CLR 21/13 A3013 RMK AO2 SLP202 T02060128 51015
KMTH 151353Z AUTO 06004KT 10SM CLR 18/14 A3012 RMK AO2 SLP198 T01830144
KMTH 151253Z AUTO 00000KT 10SM CLR 16/13 A3010 RMK AO2 SLP192 T01610133
KMTH 151153Z AUTO 00000KT 10SM CLR 13/12 A3009 RMK AO2 SLP187 T01330117 10156 20128 50008 $
KMTH 151053Z AUTO 02004KT 10SM CLR 16/13 A3009 RMK AO2 SLP188 T01560128 $
KMTH 150953Z AUTO 02003KT 10SM CLR 13/11 A3007 RMK AO2 SLP182 T01330111 $
KMTH 150853Z AUTO 00000KT 10SM CLR 14/12 A3006 RMK AO2 SLP179 T01390117 56008 $